createdAt,value
2023-02-20T00:00:35.619Z,94440.13
2023-02-20T00:03:02.923Z,94440.56
2023-02-20T00:05:29.606Z,94445.47
2023-02-20T00:07:56.354Z,94444.50
2023-02-20T00:10:24.304Z,94444.69
2023-02-20T00:12:51.830Z,94449.28
2023-02-20T00:15:19.964Z,94444.47
2023-02-20T00:17:47.557Z,94440.41
2023-02-20T00:20:16.157Z,94444.09
2023-02-20T00:22:42.853Z,94435.59
2023-02-20T00:25:09.564Z,94431.09
2023-02-20T00:27:36.239Z,94428.63
2023-02-20T00:30:04.881Z,94440.41
2023-02-20T00:32:31.579Z,94420.94
2023-02-20T00:34:58.228Z,94420.91
2023-02-20T00:37:24.890Z,94422.66
2023-02-20T00:39:51.490Z,94414.16
2023-02-20T00:42:18.072Z,94392.53
2023-02-20T00:44:44.720Z,94396.56
2023-02-20T00:47:11.299Z,94411.06
2023-02-20T00:49:37.990Z,94407.97
2023-02-20T00:52:04.638Z,94427.69
2023-02-20T00:54:31.283Z,94439.16
2023-02-20T00:56:57.845Z,94438.25
2023-02-20T00:59:24.543Z,94448.72
2023-02-20T01:01:51.288Z,94446.66
2023-02-20T01:04:18.125Z,94460.06
2023-02-20T01:06:44.961Z,94457.09
2023-02-20T01:09:11.983Z,94463.38
2023-02-20T01:11:38.573Z,94480.31
2023-02-20T01:14:05.800Z,94478.25
2023-02-20T01:16:32.544Z,94474.47
2023-02-20T01:18:59.412Z,94471.03
2023-02-20T01:21:25.994Z,94469.13
2023-02-20T01:23:52.658Z,94473.97
2023-02-20T01:26:19.335Z,94476.56
2023-02-20T01:28:49.244Z,94480.38
2023-02-20T01:31:16.659Z,94476.69
2023-02-20T01:33:44.614Z,94481.28
2023-02-20T01:36:12.236Z,94473.94
2023-02-20T01:38:42.691Z,94483.19
2023-02-20T01:41:11.399Z,94497.78
2023-02-20T01:43:38.315Z,94499.22
2023-02-20T01:46:40.556Z,94513.66
2023-02-20T01:49:13.321Z,94528.78
2023-02-20T01:51:46.710Z,94513.28
2023-02-20T01:54:18.698Z,94503.59
2023-02-20T01:56:47.629Z,94511.44
2023-02-20T01:59:15.998Z,94521.28
2023-02-20T02:01:42.756Z,94540.88
2023-02-20T02:04:12.734Z,94528.16
2023-02-20T02:06:44.028Z,94521.38
2023-02-20T02:09:34.637Z,94528.22
2023-02-20T02:12:02.795Z,94532.91
2023-02-20T02:14:29.428Z,94523.56
2023-02-20T02:17:37.316Z,94530.69
2023-02-20T02:20:12.619Z,94524.38
2023-02-20T02:22:56.046Z,94516.22
2023-02-20T02:25:25.699Z,94525.09
2023-02-20T02:28:12.963Z,94518.72
2023-02-20T02:30:58.772Z,94532.47
2023-02-20T02:33:49.857Z,94536.06
2023-02-20T02:36:43.858Z,94542.22
2023-02-20T02:39:29.273Z,94531.94
2023-02-20T02:42:06.264Z,94540.84
2023-02-20T02:44:46.895Z,94535.25
2023-02-20T02:47:26.394Z,94537.38
2023-02-20T02:50:01.772Z,94534.84
2023-02-20T02:52:46.489Z,94536.97
2023-02-20T02:55:15.112Z,94536.44
2023-02-20T02:57:41.824Z,94540.50
2023-02-20T03:00:11.192Z,94543.94
2023-02-20T03:02:47.629Z,94546.25
2023-02-20T03:05:18.155Z,94545.94
2023-02-20T03:07:48.982Z,94551.50
2023-02-20T03:10:31.588Z,94555.59
2023-02-20T03:13:04.699Z,94551.28
2023-02-20T03:15:42.709Z,94552.22
2023-02-20T03:18:47.930Z,94562.13
2023-02-20T03:21:20.698Z,94557.56
2023-02-20T03:23:57.229Z,94565.75
2023-02-20T03:26:30.238Z,94567.31
2023-02-20T03:29:05.187Z,94560.34
2023-02-20T03:31:46.836Z,94564.72
2023-02-20T03:34:43.663Z,94573.16
2023-02-20T03:37:35.307Z,94585.81
2023-02-20T03:40:25.689Z,94578.16
2023-02-20T03:43:15.387Z,94580.88
2023-02-20T03:45:43.578Z,94568.88
2023-02-20T03:48:49.296Z,94580.81
2023-02-20T03:51:16.581Z,94579.16
2023-02-20T03:53:44.784Z,94590.22
2023-02-20T03:56:16.883Z,94588.63
2023-02-20T03:58:50.277Z,94612.31
2023-02-20T04:01:20.492Z,94621.41
2023-02-20T04:03:49.866Z,94615.97
2023-02-20T04:06:18.932Z,94636.00
2023-02-20T04:08:53.344Z,94629.00
2023-02-20T04:11:40.953Z,94627.00
2023-02-20T04:14:08.615Z,94624.34
2023-02-20T04:16:50.408Z,94627.84
2023-02-20T04:19:17.421Z,94610.53
2023-02-20T04:21:50.503Z,94615.19
2023-02-20T04:24:25.973Z,94612.97
2023-02-20T04:26:53.016Z,94610.13
2023-02-20T04:29:20.640Z,94621.53
2023-02-20T04:31:47.454Z,94628.09
2023-02-20T04:34:14.135Z,94627.69
2023-02-20T04:36:40.890Z,94637.97
2023-02-20T04:39:07.582Z,94640.47
2023-02-20T04:41:34.243Z,94630.00
2023-02-20T04:44:19.146Z,94629.81
2023-02-20T04:46:45.757Z,94607.47
2023-02-20T04:49:12.513Z,94617.63
2023-02-20T04:51:39.086Z,94621.69
2023-02-20T04:54:05.761Z,94630.84
2023-02-20T04:56:32.429Z,94627.06
2023-02-20T04:58:59.051Z,94633.25
2023-02-20T05:01:25.631Z,94638.34
2023-02-20T05:03:52.270Z,94635.44
2023-02-20T05:06:18.935Z,94645.88
2023-02-20T05:08:45.590Z,94669.84
2023-02-20T05:11:12.313Z,94662.06
2023-02-20T05:13:38.946Z,94666.09
2023-02-20T05:16:05.876Z,94659.97
2023-02-20T05:18:32.616Z,94660.38
2023-02-20T05:21:17.841Z,94660.25
2023-02-20T05:23:47.231Z,94655.97
2023-02-20T05:26:19.316Z,94665.81
2023-02-20T05:28:46.116Z,94672.94
2023-02-20T05:31:15.000Z,94675.78
2023-02-20T05:33:43.076Z,94679.19
2023-02-20T05:36:10.049Z,94682.38
2023-02-20T05:38:36.740Z,94693.84
2023-02-20T05:41:03.360Z,94700.19
2023-02-20T05:43:30.036Z,94692.09
2023-02-20T05:45:56.612Z,94692.06
2023-02-20T05:48:23.220Z,94690.19
2023-02-20T05:50:50.690Z,94684.06
2023-02-20T05:53:17.512Z,94683.94
2023-02-20T05:55:44.229Z,94692.78
2023-02-20T05:58:10.833Z,94689.28
2023-02-20T06:00:37.446Z,94679.44
2023-02-20T06:03:07.721Z,94672.38
2023-02-20T06:05:36.152Z,94674.41
2023-02-20T06:08:04.240Z,94690.97
2023-02-20T06:10:30.836Z,94680.22
2023-02-20T06:12:57.471Z,94696.81
2023-02-20T06:15:24.267Z,94702.63
2023-02-20T06:17:51.044Z,94712.06
2023-02-20T06:20:17.792Z,94715.31
2023-02-20T06:22:44.489Z,94695.41
2023-02-20T06:25:11.914Z,94708.84
2023-02-20T06:27:39.717Z,94691.00
2023-02-20T06:30:06.685Z,94709.97
2023-02-20T06:32:33.352Z,94702.88
2023-02-20T06:34:59.949Z,94715.72
2023-02-20T06:37:26.559Z,94726.47
2023-02-20T06:39:53.127Z,94714.84
2023-02-20T06:42:19.726Z,94724.59
2023-02-20T06:44:46.306Z,94730.81
2023-02-20T06:47:12.946Z,94729.25
2023-02-20T06:49:39.592Z,94731.56
2023-02-20T06:52:06.521Z,94727.97
2023-02-20T06:54:34.468Z,94722.91
2023-02-20T06:57:02.119Z,94732.84
2023-02-20T06:59:28.778Z,94731.94
2023-02-20T07:01:55.506Z,94744.09
2023-02-20T07:04:27.337Z,94743.25
2023-02-20T07:06:54.512Z,94745.50
2023-02-20T07:09:21.130Z,94745.69
2023-02-20T07:11:50.518Z,94762.69
2023-02-20T07:14:17.102Z,94759.69
2023-02-20T07:16:43.700Z,94763.25
2023-02-20T07:19:10.401Z,94764.31
2023-02-20T07:21:37.033Z,94774.44
2023-02-20T07:24:04.160Z,94769.94
2023-02-20T07:26:31.272Z,94772.84
2023-02-20T07:28:59.203Z,94791.28
2023-02-20T07:31:26.181Z,94774.47
2023-02-20T07:33:52.957Z,94783.63
2023-02-20T07:36:20.463Z,94774.31
2023-02-20T07:38:57.108Z,94779.66
2023-02-20T07:41:37.499Z,94767.34
2023-02-20T07:44:04.633Z,94755.75
2023-02-20T07:46:34.045Z,94776.50
2023-02-20T07:49:02.735Z,94773.19
2023-02-20T07:51:29.767Z,94786.81
2023-02-20T07:53:56.692Z,94787.94
2023-02-20T07:56:23.800Z,94795.28
2023-02-20T07:58:50.928Z,94790.91
2023-02-20T08:01:17.891Z,94787.75
2023-02-20T08:03:44.617Z,94804.88
2023-02-20T08:06:11.755Z,94809.38
2023-02-20T08:08:38.604Z,94790.53
2023-02-20T08:11:10.270Z,94803.72
2023-02-20T08:13:37.903Z,94799.97
2023-02-20T08:16:04.955Z,94794.13
2023-02-20T08:18:31.595Z,94811.50
2023-02-20T08:20:58.213Z,94817.59
2023-02-20T08:23:25.859Z,94822.00
2023-02-20T08:25:52.511Z,94804.25
2023-02-20T08:28:19.684Z,94819.66
2023-02-20T08:30:46.753Z,94814.63
2023-02-20T08:33:13.802Z,94821.09
2023-02-20T08:35:40.438Z,94803.53
2023-02-20T08:38:22.848Z,94818.91
2023-02-20T08:40:49.479Z,94809.81
2023-02-20T08:43:16.205Z,94806.28
2023-02-20T08:45:42.865Z,94812.16
2023-02-20T08:48:09.511Z,94801.78
2023-02-20T08:50:36.206Z,94806.00
2023-02-20T08:53:02.912Z,94813.28
2023-02-20T08:55:29.561Z,94808.50
2023-02-20T08:57:56.229Z,94792.94
2023-02-20T09:00:23.228Z,94795.84
2023-02-20T09:02:49.916Z,94809.38
2023-02-20T09:05:17.620Z,94799.41
2023-02-20T09:07:45.390Z,94807.63
2023-02-20T09:10:12.138Z,94781.19
2023-02-20T09:12:42.168Z,94795.91
2023-02-20T09:15:10.376Z,94801.78
2023-02-20T09:17:37.846Z,94795.53
2023-02-20T09:20:09.744Z,94811.16
2023-02-20T09:22:36.909Z,94801.78
2023-02-20T09:25:05.276Z,94814.84
2023-02-20T09:27:31.874Z,94795.84
2023-02-20T09:29:58.559Z,94806.97
2023-02-20T09:32:25.318Z,94806.19
2023-02-20T09:34:52.078Z,94785.75
2023-02-20T09:37:18.958Z,94798.09
2023-02-20T09:39:45.623Z,94797.63
2023-02-20T09:42:32.165Z,94809.06
2023-02-20T09:45:21.419Z,94794.31
2023-02-20T09:48:09.620Z,94801.38
2023-02-20T09:50:49.667Z,94797.78
2023-02-20T09:53:35.465Z,94824.69
2023-02-20T09:56:04.983Z,94798.53
2023-02-20T09:58:45.926Z,94789.69
2023-02-20T10:01:22.632Z,94807.06
2023-02-20T10:04:03.588Z,94805.94
2023-02-20T10:06:32.954Z,94808.09
2023-02-20T10:09:02.473Z,94794.94
2023-02-20T10:11:59.371Z,94796.69
2023-02-20T10:14:44.384Z,94788.28
2023-02-20T10:17:15.903Z,94785.28
2023-02-20T10:19:54.016Z,94794.22
2023-02-20T10:22:26.057Z,94778.06
2023-02-20T10:25:19.927Z,94790.41
2023-02-20T10:28:03.205Z,94778.00
2023-02-20T10:30:33.922Z,94787.00
2023-02-20T10:33:14.815Z,94763.09
2023-02-20T10:35:56.274Z,94771.31
2023-02-20T10:38:27.462Z,94745.13
2023-02-20T10:41:11.783Z,94756.53
2023-02-20T10:44:05.585Z,94756.34
2023-02-20T10:46:49.576Z,94733.69
2023-02-20T10:49:45.156Z,94740.13
2023-02-20T10:52:31.779Z,94734.78
2023-02-20T10:55:13.610Z,94732.56
2023-02-20T10:58:03.788Z,94737.38
2023-02-20T11:00:46.327Z,94737.50
2023-02-20T11:03:18.956Z,94749.63
2023-02-20T11:05:51.227Z,94746.53
2023-02-20T11:08:21.081Z,94758.97
2023-02-20T11:10:48.917Z,94750.72
2023-02-20T11:13:20.224Z,94740.00
2023-02-20T11:15:50.640Z,94743.91
2023-02-20T11:18:26.135Z,94736.03
2023-02-20T11:20:56.518Z,94754.72
2023-02-20T11:23:37.578Z,94734.25
2023-02-20T11:26:28.953Z,94728.63
2023-02-20T11:29:04.329Z,94734.75
2023-02-20T11:31:31.724Z,94746.50
2023-02-20T11:33:58.567Z,94737.03
2023-02-20T11:36:28.507Z,94739.13
2023-02-20T11:39:01.813Z,94725.97
2023-02-20T11:41:36.990Z,94720.75
2023-02-20T11:44:07.321Z,94704.38
2023-02-20T11:46:34.066Z,94703.22
2023-02-20T11:49:01.113Z,94722.97
2023-02-20T11:51:48.444Z,94713.28
2023-02-20T11:54:21.479Z,94713.72
2023-02-20T11:57:18.528Z,94692.47
2023-02-20T11:59:47.605Z,94689.72
2023-02-20T12:02:17.368Z,94702.56
2023-02-20T12:04:44.620Z,94695.44
2023-02-20T12:07:23.484Z,94706.00
2023-02-20T12:09:53.272Z,94712.28
2023-02-20T12:12:23.719Z,94700.28
2023-02-20T12:14:51.294Z,94696.34
2023-02-20T12:17:51.356Z,94688.63
2023-02-20T12:20:21.126Z,94689.78
2023-02-20T12:23:24.624Z,94698.25
2023-02-20T12:26:29.729Z,94713.63
2023-02-20T12:29:28.527Z,94710.06
2023-02-20T12:32:21.681Z,94693.31
2023-02-20T12:35:20.006Z,94708.91
2023-02-20T12:37:53.167Z,94693.44
2023-02-20T12:40:27.143Z,94699.44
2023-02-20T12:43:08.714Z,94707.06
2023-02-20T12:45:47.624Z,94715.72
2023-02-20T12:48:20.053Z,94717.38
2023-02-20T12:50:58.946Z,94710.25
2023-02-20T12:53:41.537Z,94721.91
2023-02-20T12:56:39.836Z,94701.06
2023-02-20T12:59:49.795Z,94701.84
2023-02-20T13:02:39.348Z,94701.88
2023-02-20T13:05:13.165Z,94690.09
2023-02-20T13:07:56.523Z,94686.84
2023-02-20T13:10:32.345Z,94700.75
2023-02-20T13:12:59.736Z,94686.16
2023-02-20T13:16:01.887Z,94688.31
2023-02-20T13:18:43.305Z,94702.41
2023-02-20T13:21:17.668Z,94708.59
2023-02-20T13:23:44.569Z,94712.41
2023-02-20T13:26:29.978Z,94704.94
2023-02-20T13:29:12.508Z,94719.59
2023-02-20T13:31:39.095Z,94721.16
2023-02-20T13:34:05.833Z,94718.44
2023-02-20T13:36:40.050Z,94721.72
2023-02-20T13:39:18.768Z,94706.19
2023-02-20T13:41:54.386Z,94720.50
2023-02-20T13:44:36.347Z,94705.19
2023-02-20T13:47:28.317Z,94705.53
2023-02-20T13:50:01.875Z,94714.00
2023-02-20T13:52:43.146Z,94722.81
2023-02-20T13:55:15.503Z,94719.19
2023-02-20T13:57:44.984Z,94723.50
2023-02-20T14:00:46.644Z,94719.69
2023-02-20T14:03:26.116Z,94727.56
2023-02-20T14:06:11.756Z,94731.66
2023-02-20T14:08:46.803Z,94727.66
2023-02-20T14:11:27.118Z,94712.25
2023-02-20T14:13:57.928Z,94715.47
2023-02-20T14:16:30.867Z,94707.63
2023-02-20T14:19:04.078Z,94712.28
2023-02-20T14:21:31.209Z,94714.75
2023-02-20T14:24:13.894Z,94711.78
2023-02-20T14:26:40.502Z,94722.66
2023-02-20T14:29:22.371Z,94729.75
2023-02-20T14:31:52.426Z,94741.44
2023-02-20T14:34:32.942Z,94735.03
2023-02-20T14:37:21.089Z,94749.72
2023-02-20T14:39:59.425Z,94734.72
2023-02-20T14:42:26.412Z,94736.69
2023-02-20T14:45:02.172Z,94741.78
2023-02-20T14:47:29.288Z,94728.53
2023-02-20T14:50:18.221Z,94739.78
2023-02-20T14:52:44.885Z,94737.28
2023-02-20T14:55:16.661Z,94735.72
2023-02-20T14:57:43.342Z,94740.31
2023-02-20T15:00:20.636Z,94733.41
2023-02-20T15:02:50.041Z,94743.16
2023-02-20T15:05:27.250Z,94752.91
2023-02-20T15:08:01.946Z,94762.28
2023-02-20T15:10:35.120Z,94761.88
2023-02-20T15:13:14.001Z,94772.31
2023-02-20T15:15:44.797Z,94779.34
2023-02-20T15:18:17.744Z,94770.03
2023-02-20T15:20:48.671Z,94759.75
2023-02-20T15:23:36.642Z,94763.56
2023-02-20T15:26:28.977Z,94756.59
2023-02-20T15:29:34.000Z,94765.44
2023-02-20T15:32:03.380Z,94756.41
2023-02-20T15:34:38.977Z,94759.47
2023-02-20T15:37:38.111Z,94757.66
2023-02-20T15:40:20.535Z,94759.41
2023-02-20T15:42:48.235Z,94754.97
2023-02-20T15:45:15.137Z,94754.53
2023-02-20T15:47:42.513Z,94751.66
2023-02-20T15:50:09.391Z,94747.44
2023-02-20T15:52:36.113Z,94744.09
2023-02-20T15:55:03.297Z,94738.81
2023-02-20T15:57:29.967Z,94738.63
2023-02-20T15:59:56.623Z,94728.91
2023-02-20T16:02:24.735Z,94730.75
2023-02-20T16:04:52.490Z,94742.44
2023-02-20T16:07:21.029Z,94748.78
2023-02-20T16:09:47.958Z,94741.16
2023-02-20T16:12:23.881Z,94748.88
2023-02-20T16:14:53.854Z,94752.34
2023-02-20T16:17:25.372Z,94750.59
2023-02-20T16:19:51.953Z,94750.78
2023-02-20T16:22:18.694Z,94748.50
2023-02-20T16:24:45.838Z,94756.75
2023-02-20T16:27:25.095Z,94752.66
2023-02-20T16:29:54.048Z,94744.56
2023-02-20T16:32:24.758Z,94755.38
2023-02-20T16:34:52.041Z,94756.84
2023-02-20T16:37:19.770Z,94762.50
2023-02-20T16:39:46.740Z,94764.47
2023-02-20T16:42:16.417Z,94759.38
2023-02-20T16:44:45.347Z,94758.91
2023-02-20T16:47:15.185Z,94768.31
2023-02-20T16:49:41.913Z,94762.66
2023-02-20T16:52:17.878Z,94774.56
2023-02-20T16:54:46.581Z,94774.25
2023-02-20T16:57:13.597Z,94775.09
2023-02-20T16:59:40.863Z,94767.91
2023-02-20T17:02:07.699Z,94765.41
2023-02-20T17:04:34.430Z,94767.84
2023-02-20T17:07:02.259Z,94782.09
2023-02-20T17:09:41.875Z,94776.94
2023-02-20T17:12:09.827Z,94779.38
2023-02-20T17:14:36.560Z,94789.06
2023-02-20T17:17:03.546Z,94783.78
2023-02-20T17:19:32.916Z,94786.44
2023-02-20T17:22:00.008Z,94784.09
2023-02-20T17:24:28.130Z,94773.94
2023-02-20T17:26:55.508Z,94772.47
2023-02-20T17:29:22.360Z,94772.59
2023-02-20T17:31:49.909Z,94779.06
2023-02-20T17:34:16.846Z,94778.00
2023-02-20T17:36:49.399Z,94794.59
2023-02-20T17:39:18.112Z,94794.66
2023-02-20T17:41:45.093Z,94791.16
2023-02-20T17:44:16.100Z,94796.66
2023-02-20T17:46:42.770Z,94796.69
2023-02-20T17:49:09.549Z,94794.88
2023-02-20T17:51:36.191Z,94793.66
2023-02-20T17:54:03.933Z,94790.56
2023-02-20T17:56:30.509Z,94785.19
2023-02-20T17:58:57.141Z,94782.66
2023-02-20T18:01:27.464Z,94791.97
2023-02-20T18:03:55.415Z,94788.44
2023-02-20T18:06:22.176Z,94797.16
2023-02-20T18:08:50.636Z,94791.81
2023-02-20T18:11:18.311Z,94791.41
2023-02-20T18:13:44.994Z,94782.72
2023-02-20T18:16:12.076Z,94781.97
2023-02-20T18:18:39.027Z,94768.41
2023-02-20T18:21:05.867Z,94761.13
2023-02-20T18:23:32.584Z,94758.19
2023-02-20T18:25:59.297Z,94762.28
2023-02-20T18:28:25.974Z,94764.28
2023-02-20T18:30:52.742Z,94767.41
2023-02-20T18:33:19.418Z,94768.69
2023-02-20T18:35:50.618Z,94756.03
2023-02-20T18:38:25.591Z,94760.69
2023-02-20T18:40:52.384Z,94763.91
2023-02-20T18:43:19.097Z,94743.66
2023-02-20T18:45:45.883Z,94752.66
2023-02-20T18:48:12.607Z,94748.47
2023-02-20T18:50:39.270Z,94753.91
2023-02-20T18:53:06.025Z,94744.53
2023-02-20T18:55:32.650Z,94750.22
2023-02-20T18:57:59.792Z,94748.28
2023-02-20T19:00:29.740Z,94746.84
2023-02-20T19:02:58.144Z,94735.34
2023-02-20T19:05:25.345Z,94724.78
2023-02-20T19:07:52.303Z,94713.31
2023-02-20T19:10:22.824Z,94705.09
2023-02-20T19:12:50.214Z,94696.56
2023-02-20T19:15:17.410Z,94707.25
2023-02-20T19:17:46.259Z,94699.88
2023-02-20T19:20:20.188Z,94703.28
2023-02-20T19:22:47.741Z,94698.88
2023-02-20T19:25:15.284Z,94687.75
2023-02-20T19:27:42.164Z,94685.19
2023-02-20T19:30:10.253Z,94678.09
2023-02-20T19:32:37.018Z,94682.38
2023-02-20T19:35:03.971Z,94680.19
2023-02-20T19:37:30.580Z,94688.31
2023-02-20T19:39:57.361Z,94686.63
2023-02-20T19:42:26.358Z,94687.16
2023-02-20T19:44:55.482Z,94674.91
2023-02-20T19:47:22.695Z,94674.72
2023-02-20T19:49:49.820Z,94662.16
2023-02-20T19:52:17.024Z,94664.75
2023-02-20T19:54:45.620Z,94668.00
2023-02-20T19:57:12.722Z,94661.97
2023-02-20T19:59:39.858Z,94648.34
2023-02-20T20:02:06.860Z,94655.69
2023-02-20T20:04:33.923Z,94640.06
2023-02-20T20:07:02.697Z,94638.72
2023-02-20T20:09:36.518Z,94650.31
2023-02-20T20:12:05.350Z,94650.38
2023-02-20T20:14:32.093Z,94640.22
2023-02-20T20:16:58.859Z,94644.13
2023-02-20T20:19:25.670Z,94648.59
2023-02-20T20:21:52.437Z,94634.31
2023-02-20T20:24:19.209Z,94638.53
2023-02-20T20:26:45.901Z,94649.84
2023-02-20T20:29:12.560Z,94643.59
2023-02-20T20:31:41.729Z,94622.97
2023-02-20T20:34:09.291Z,94635.28
2023-02-20T20:36:36.133Z,94628.53
2023-02-20T20:39:03.938Z,94625.25
2023-02-20T20:41:44.071Z,94624.41
2023-02-20T20:44:12.133Z,94607.66
2023-02-20T20:46:38.978Z,94606.09
2023-02-20T20:49:05.586Z,94607.88
2023-02-20T20:51:32.216Z,94610.38
2023-02-20T20:53:58.988Z,94610.47
2023-02-20T20:56:25.606Z,94611.69
2023-02-20T20:58:52.236Z,94601.66
2023-02-20T21:01:19.098Z,94601.13
2023-02-20T21:03:45.778Z,94595.28
2023-02-20T21:06:12.959Z,94595.81
2023-02-20T21:08:40.039Z,94592.09
2023-02-20T21:11:07.133Z,94600.69
2023-02-20T21:13:33.943Z,94595.50
2023-02-20T21:16:01.993Z,94598.56
2023-02-20T21:18:28.942Z,94586.03
2023-02-20T21:20:56.662Z,94590.28
2023-02-20T21:23:24.690Z,94600.88
2023-02-20T21:25:51.329Z,94595.88
2023-02-20T21:28:23.889Z,94599.09
2023-02-20T21:30:50.646Z,94585.31
2023-02-20T21:33:17.417Z,94572.63
2023-02-20T21:35:44.048Z,94567.75
2023-02-20T21:38:10.719Z,94556.31
2023-02-20T21:40:37.572Z,94552.59
2023-02-20T21:43:22.874Z,94548.81
2023-02-20T21:45:49.888Z,94555.72
2023-02-20T21:48:17.338Z,94550.91
2023-02-20T21:50:44.010Z,94550.84
2023-02-20T21:53:15.990Z,94541.72
2023-02-20T21:55:52.164Z,94544.84
2023-02-20T21:58:19.368Z,94546.25
2023-02-20T22:00:46.005Z,94558.13
2023-02-20T22:03:14.816Z,94544.78
2023-02-20T22:05:41.381Z,94552.34
2023-02-20T22:08:26.522Z,94533.94
2023-02-20T22:11:12.133Z,94540.59
2023-02-20T22:13:57.337Z,94531.47
2023-02-20T22:16:42.494Z,94541.28
2023-02-20T22:19:27.518Z,94528.41
2023-02-20T22:22:12.981Z,94525.28
2023-02-20T22:24:58.522Z,94523.56
2023-02-20T22:27:44.166Z,94522.41
2023-02-20T22:30:30.174Z,94519.91
2023-02-20T22:33:15.229Z,94510.25
2023-02-20T22:36:00.369Z,94519.19
2023-02-20T22:38:45.718Z,94516.91
2023-02-20T22:41:38.243Z,94518.78
2023-02-20T22:44:23.747Z,94523.16
2023-02-20T22:47:08.836Z,94520.41
2023-02-20T22:49:54.566Z,94518.16
2023-02-20T22:52:39.798Z,94521.13
2023-02-20T22:55:25.454Z,94527.41
2023-02-20T22:58:10.852Z,94525.84
2023-02-20T23:00:56.101Z,94523.00
2023-02-20T23:03:41.397Z,94524.06
2023-02-20T23:06:26.775Z,94508.31
2023-02-20T23:09:11.754Z,94515.09
2023-02-20T23:11:57.597Z,94532.78
2023-02-20T23:14:43.629Z,94521.16
2023-02-20T23:17:36.180Z,94514.91
2023-02-20T23:20:32.044Z,94523.25
2023-02-20T23:23:17.881Z,94509.63
2023-02-20T23:26:03.277Z,94495.66
2023-02-20T23:28:48.827Z,94499.56
2023-02-20T23:31:34.953Z,94484.06
2023-02-20T23:34:21.189Z,94498.84
2023-02-20T23:37:08.874Z,94497.81
2023-02-20T23:39:54.826Z,94485.78
2023-02-20T23:42:40.232Z,94491.72
2023-02-20T23:45:26.882Z,94489.81
2023-02-20T23:48:12.205Z,94477.59
2023-02-20T23:50:57.580Z,94463.16
2023-02-20T23:53:42.711Z,94462.31
2023-02-20T23:56:27.993Z,94460.28
2023-02-20T23:59:13.218Z,94466.16
